sensor_id;sensor_type;location;lat;lon;timestamp;P1;durP1;ratioP1;P2;durP2;ratioP2
69534;SDS011;56754;51.568;5.048;2022-12-29T00:00:34;2.70;;;0.70;;
69534;SDS011;56754;51.568;5.048;2022-12-29T00:02:59;2.70;;;0.70;;
69534;SDS011;56754;51.568;5.048;2022-12-29T00:05:24;2.10;;;0.60;;
69534;SDS011;56754;51.568;5.048;2022-12-29T00:07:50;3.37;;;0.80;;
69534;SDS011;56754;51.568;5.048;2022-12-29T00:10:15;2.47;;;0.70;;
69534;SDS011;56754;51.568;5.048;2022-12-29T00:12:40;3.60;;;0.70;;
69534;SDS011;56754;51.568;5.048;2022-12-29T00:15:06;2.27;;;0.60;;
69534;SDS011;56754;51.568;5.048;2022-12-29T00:17:31;2.47;;;0.60;;
69534;SDS011;56754;51.568;5.048;2022-12-29T00:19:57;2.07;;;0.50;;
69534;SDS011;56754;51.568;5.048;2022-12-29T00:22:22;2.00;;;0.50;;
69534;SDS011;56754;51.568;5.048;2022-12-29T00:24:47;2.17;;;0.50;;
69534;SDS011;56754;51.568;5.048;2022-12-29T00:27:13;1.92;;;0.50;;
69534;SDS011;56754;51.568;5.048;2022-12-29T00:29:38;2.13;;;0.60;;
69534;SDS011;56754;51.568;5.048;2022-12-29T00:32:06;2.27;;;0.40;;
69534;SDS011;56754;51.568;5.048;2022-12-29T00:34:34;2.10;;;0.60;;
69534;SDS011;56754;51.568;5.048;2022-12-29T00:36:59;2.47;;;0.60;;
69534;SDS011;56754;51.568;5.048;2022-12-29T00:39:25;1.33;;;0.40;;
69534;SDS011;56754;51.568;5.048;2022-12-29T00:41:50;1.63;;;0.40;;
69534;SDS011;56754;51.568;5.048;2022-12-29T00:44:16;2.00;;;0.50;;
69534;SDS011;56754;51.568;5.048;2022-12-29T00:46:41;1.47;;;0.40;;
69534;SDS011;56754;51.568;5.048;2022-12-29T00:49:08;2.25;;;0.57;;
69534;SDS011;56754;51.568;5.048;2022-12-29T00:51:36;1.77;;;0.57;;
69534;SDS011;56754;51.568;5.048;2022-12-29T00:54:01;1.90;;;0.50;;
69534;SDS011;56754;51.568;5.048;2022-12-29T00:56:29;2.27;;;0.50;;
69534;SDS011;56754;51.568;5.048;2022-12-29T00:58:54;2.90;;;0.60;;
69534;SDS011;56754;51.568;5.048;2022-12-29T01:01:20;1.80;;;0.40;;
69534;SDS011;56754;51.568;5.048;2022-12-29T01:03:45;2.23;;;0.60;;
69534;SDS011;56754;51.568;5.048;2022-12-29T01:06:11;2.07;;;0.47;;
69534;SDS011;56754;51.568;5.048;2022-12-29T01:08:36;1.88;;;0.40;;
69534;SDS011;56754;51.568;5.048;2022-12-29T01:11:11;2.20;;;0.50;;
69534;SDS011;56754;51.568;5.048;2022-12-29T01:13:38;1.33;;;0.40;;
69534;SDS011;56754;51.568;5.048;2022-12-29T01:16:05;3.23;;;0.50;;
69534;SDS011;56754;51.568;5.048;2022-12-29T01:18:30;1.55;;;0.50;;
69534;SDS011;56754;51.568;5.048;2022-12-29T01:20:59;3.15;;;0.50;;
69534;SDS011;56754;51.568;5.048;2022-12-29T01:23:26;3.15;;;0.65;;
69534;SDS011;56754;51.568;5.048;2022-12-29T01:25:51;2.53;;;0.50;;
69534;SDS011;56754;51.568;5.048;2022-12-29T01:28:16;2.63;;;0.53;;
69534;SDS011;56754;51.568;5.048;2022-12-29T01:30:42;2.43;;;0.43;;
69534;SDS011;56754;51.568;5.048;2022-12-29T01:33:07;3.43;;;0.60;;
69534;SDS011;56754;51.568;5.048;2022-12-29T01:35:32;3.53;;;0.50;;
69534;SDS011;56754;51.568;5.048;2022-12-29T01:37:57;1.97;;;0.40;;
69534;SDS011;56754;51.568;5.048;2022-12-29T01:40:23;2.03;;;0.52;;
69534;SDS011;56754;51.568;5.048;2022-12-29T01:42:49;1.97;;;0.60;;
69534;SDS011;56754;51.568;5.048;2022-12-29T01:45:15;2.10;;;0.50;;
69534;SDS011;56754;51.568;5.048;2022-12-29T01:48:15;3.45;;;0.43;;
69534;SDS011;56754;51.568;5.048;2022-12-29T01:50:39;2.13;;;0.40;;
69534;SDS011;56754;51.568;5.048;2022-12-29T01:53:09;1.73;;;0.40;;
69534;SDS011;56754;51.568;5.048;2022-12-29T01:55:41;3.33;;;0.60;;
69534;SDS011;56754;51.568;5.048;2022-12-29T01:58:13;2.17;;;0.30;;
69534;SDS011;56754;51.568;5.048;2022-12-29T02:00:41;1.75;;;0.43;;
69534;SDS011;56754;51.568;5.048;2022-12-29T02:03:06;1.77;;;0.30;;
69534;SDS011;56754;51.568;5.048;2022-12-29T02:05:34;2.58;;;0.60;;
69534;SDS011;56754;51.568;5.048;2022-12-29T02:08:26;1.73;;;0.38;;
69534;SDS011;56754;51.568;5.048;2022-12-29T02:10:53;1.95;;;0.30;;
69534;SDS011;56754;51.568;5.048;2022-12-29T02:13:20;2.33;;;0.60;;
69534;SDS011;56754;51.568;5.048;2022-12-29T02:15:52;2.10;;;0.35;;
69534;SDS011;56754;51.568;5.048;2022-12-29T02:18:31;2.93;;;0.40;;
69534;SDS011;56754;51.568;5.048;2022-12-29T02:26:48;3.10;;;0.38;;
69534;SDS011;56754;51.568;5.048;2022-12-29T02:37:51;3.78;;;0.43;;
69534;SDS011;56754;51.568;5.048;2022-12-29T02:40:33;2.80;;;0.60;;
69534;SDS011;56754;51.568;5.048;2022-12-29T02:45:57;3.23;;;0.37;;
69534;SDS011;56754;51.568;5.048;2022-12-29T02:48:29;2.22;;;0.30;;
69534;SDS011;56754;51.568;5.048;2022-12-29T02:51:52;3.25;;;0.45;;
69534;SDS011;56754;51.568;5.048;2022-12-29T02:54:16;1.80;;;0.32;;
69534;SDS011;56754;51.568;5.048;2022-12-29T02:56:43;2.13;;;0.35;;
69534;SDS011;56754;51.568;5.048;2022-12-29T02:59:09;2.73;;;0.40;;
69534;SDS011;56754;51.568;5.048;2022-12-29T03:01:46;4.07;;;0.30;;
69534;SDS011;56754;51.568;5.048;2022-12-29T03:11:57;2.45;;;0.30;;
69534;SDS011;56754;51.568;5.048;2022-12-29T03:14:32;3.50;;;0.50;;
69534;SDS011;56754;51.568;5.048;2022-12-29T03:17:04;1.88;;;0.32;;
69534;SDS011;56754;51.568;5.048;2022-12-29T03:19:35;2.50;;;0.32;;
69534;SDS011;56754;51.568;5.048;2022-12-29T03:22:04;2.17;;;0.28;;
69534;SDS011;56754;51.568;5.048;2022-12-29T03:24:34;2.05;;;0.40;;
69534;SDS011;56754;51.568;5.048;2022-12-29T03:27:03;1.93;;;0.30;;
69534;SDS011;56754;51.568;5.048;2022-12-29T03:29:33;2.67;;;0.40;;
69534;SDS011;56754;51.568;5.048;2022-12-29T03:32:02;2.13;;;0.30;;
69534;SDS011;56754;51.568;5.048;2022-12-29T03:34:29;3.20;;;0.40;;
69534;SDS011;56754;51.568;5.048;2022-12-29T03:37:00;2.70;;;0.52;;
69534;SDS011;56754;51.568;5.048;2022-12-29T03:39:31;1.27;;;0.30;;
69534;SDS011;56754;51.568;5.048;2022-12-29T03:42:01;1.75;;;0.20;;
69534;SDS011;56754;51.568;5.048;2022-12-29T03:44:34;1.63;;;0.30;;
69534;SDS011;56754;51.568;5.048;2022-12-29T03:47:01;4.15;;;0.40;;
69534;SDS011;56754;51.568;5.048;2022-12-29T03:49:27;2.95;;;0.35;;
69534;SDS011;56754;51.568;5.048;2022-12-29T03:51:52;2.67;;;0.37;;
69534;SDS011;56754;51.568;5.048;2022-12-29T03:54:18;2.23;;;0.30;;
69534;SDS011;56754;51.568;5.048;2022-12-29T03:56:43;3.70;;;0.40;;
69534;SDS011;56754;51.568;5.048;2022-12-29T03:59:08;2.97;;;0.33;;
69534;SDS011;56754;51.568;5.048;2022-12-29T04:01:34;1.98;;;0.20;;
69534;SDS011;56754;51.568;5.048;2022-12-29T04:03:59;2.93;;;0.30;;
69534;SDS011;56754;51.568;5.048;2022-12-29T04:06:24;1.60;;;0.23;;
69534;SDS011;56754;51.568;5.048;2022-12-29T04:08:49;2.77;;;0.33;;
69534;SDS011;56754;51.568;5.048;2022-12-29T04:11:15;2.90;;;0.30;;
69534;SDS011;56754;51.568;5.048;2022-12-29T04:13:40;3.20;;;0.40;;
69534;SDS011;56754;51.568;5.048;2022-12-29T04:16:05;1.57;;;0.20;;
69534;SDS011;56754;51.568;5.048;2022-12-29T04:18:31;3.25;;;0.30;;
69534;SDS011;56754;51.568;5.048;2022-12-29T04:20:56;2.20;;;0.30;;
69534;SDS011;56754;51.568;5.048;2022-12-29T04:23:21;3.97;;;0.50;;
69534;SDS011;56754;51.568;5.048;2022-12-29T04:25:47;1.87;;;0.23;;
69534;SDS011;56754;51.568;5.048;2022-12-29T04:28:13;2.85;;;0.43;;
69534;SDS011;56754;51.568;5.048;2022-12-29T04:30:39;3.58;;;0.38;;
69534;SDS011;56754;51.568;5.048;2022-12-29T04:33:04;2.53;;;0.30;;
69534;SDS011;56754;51.568;5.048;2022-12-29T04:35:30;5.20;;;0.60;;
69534;SDS011;56754;51.568;5.048;2022-12-29T04:37:55;2.42;;;0.40;;
69534;SDS011;56754;51.568;5.048;2022-12-29T04:40:20;2.10;;;0.40;;
69534;SDS011;56754;51.568;5.048;2022-12-29T04:42:46;2.97;;;0.40;;
69534;SDS011;56754;51.568;5.048;2022-12-29T04:45:11;2.47;;;0.30;;
69534;SDS011;56754;51.568;5.048;2022-12-29T04:47:36;5.27;;;0.60;;
69534;SDS011;56754;51.568;5.048;2022-12-29T04:50:02;3.43;;;0.50;;
69534;SDS011;56754;51.568;5.048;2022-12-29T04:52:28;4.00;;;0.50;;
69534;SDS011;56754;51.568;5.048;2022-12-29T04:54:53;4.80;;;0.40;;
69534;SDS011;56754;51.568;5.048;2022-12-29T04:57:18;2.83;;;0.60;;
69534;SDS011;56754;51.568;5.048;2022-12-29T04:59:43;3.40;;;0.40;;
69534;SDS011;56754;51.568;5.048;2022-12-29T05:02:09;4.43;;;0.30;;
69534;SDS011;56754;51.568;5.048;2022-12-29T05:04:34;2.07;;;0.30;;
69534;SDS011;56754;51.568;5.048;2022-12-29T05:06:59;5.40;;;0.50;;
69534;SDS011;56754;51.568;5.048;2022-12-29T05:09:25;3.77;;;0.43;;
69534;SDS011;56754;51.568;5.048;2022-12-29T05:11:51;4.67;;;0.63;;
69534;SDS011;56754;51.568;5.048;2022-12-29T05:14:16;6.22;;;0.60;;
69534;SDS011;56754;51.568;5.048;2022-12-29T05:16:41;3.60;;;0.40;;
69534;SDS011;56754;51.568;5.048;2022-12-29T05:19:07;4.07;;;0.33;;
69534;SDS011;56754;51.568;5.048;2022-12-29T05:21:32;3.07;;;0.50;;
69534;SDS011;56754;51.568;5.048;2022-12-29T05:23:57;5.53;;;0.47;;
69534;SDS011;56754;51.568;5.048;2022-12-29T05:26:22;3.30;;;0.47;;
69534;SDS011;56754;51.568;5.048;2022-12-29T05:28:48;5.87;;;0.60;;
69534;SDS011;56754;51.568;5.048;2022-12-29T05:31:14;5.57;;;0.47;;
69534;SDS011;56754;51.568;5.048;2022-12-29T05:33:39;6.57;;;0.77;;
69534;SDS011;56754;51.568;5.048;2022-12-29T05:36:05;2.87;;;0.30;;
69534;SDS011;56754;51.568;5.048;2022-12-29T05:38:32;4.63;;;0.60;;
69534;SDS011;56754;51.568;5.048;2022-12-29T05:40:57;4.13;;;0.50;;
69534;SDS011;56754;51.568;5.048;2022-12-29T05:43:22;7.17;;;0.70;;
69534;SDS011;56754;51.568;5.048;2022-12-29T05:45:48;7.20;;;0.40;;
69534;SDS011;56754;51.568;5.048;2022-12-29T05:48:14;5.00;;;0.57;;
69534;SDS011;56754;51.568;5.048;2022-12-29T05:50:39;4.60;;;0.67;;
69534;SDS011;56754;51.568;5.048;2022-12-29T05:53:04;4.50;;;0.30;;
69534;SDS011;56754;51.568;5.048;2022-12-29T05:55:30;5.30;;;0.57;;
69534;SDS011;56754;51.568;5.048;2022-12-29T05:57:55;4.93;;;0.40;;
69534;SDS011;56754;51.568;5.048;2022-12-29T06:00:21;3.80;;;0.38;;
69534;SDS011;56754;51.568;5.048;2022-12-29T06:02:46;3.93;;;0.40;;
69534;SDS011;56754;51.568;5.048;2022-12-29T06:05:12;5.23;;;0.50;;
69534;SDS011;56754;51.568;5.048;2022-12-29T06:07:37;5.13;;;0.47;;
69534;SDS011;56754;51.568;5.048;2022-12-29T06:10:03;3.67;;;0.30;;
69534;SDS011;56754;51.568;5.048;2022-12-29T06:12:29;5.97;;;0.60;;
69534;SDS011;56754;51.568;5.048;2022-12-29T06:14:55;4.00;;;0.40;;
69534;SDS011;56754;51.568;5.048;2022-12-29T06:17:20;5.27;;;0.53;;
69534;SDS011;56754;51.568;5.048;2022-12-29T06:19:45;4.83;;;0.47;;
69534;SDS011;56754;51.568;5.048;2022-12-29T06:22:10;3.20;;;0.37;;
69534;SDS011;56754;51.568;5.048;2022-12-29T06:24:36;3.13;;;0.50;;
69534;SDS011;56754;51.568;5.048;2022-12-29T06:27:01;4.83;;;0.50;;
69534;SDS011;56754;51.568;5.048;2022-12-29T06:29:26;5.22;;;0.40;;
69534;SDS011;56754;51.568;5.048;2022-12-29T06:31:51;2.27;;;0.33;;
69534;SDS011;56754;51.568;5.048;2022-12-29T06:34:17;3.03;;;0.43;;
69534;SDS011;56754;51.568;5.048;2022-12-29T06:36:42;5.10;;;0.50;;
69534;SDS011;56754;51.568;5.048;2022-12-29T06:39:07;4.30;;;0.50;;
69534;SDS011;56754;51.568;5.048;2022-12-29T06:41:32;5.07;;;0.40;;
69534;SDS011;56754;51.568;5.048;2022-12-29T06:43:58;4.77;;;0.77;;
69534;SDS011;56754;51.568;5.048;2022-12-29T06:46:23;4.10;;;0.40;;
69534;SDS011;56754;51.568;5.048;2022-12-29T06:48:48;2.95;;;0.50;;
69534;SDS011;56754;51.568;5.048;2022-12-29T06:51:14;4.97;;;0.40;;
69534;SDS011;56754;51.568;5.048;2022-12-29T06:53:39;4.53;;;0.50;;
69534;SDS011;56754;51.568;5.048;2022-12-29T06:56:05;4.27;;;0.47;;
69534;SDS011;56754;51.568;5.048;2022-12-29T06:58:30;4.13;;;0.40;;
69534;SDS011;56754;51.568;5.048;2022-12-29T07:00:55;4.90;;;0.52;;
69534;SDS011;56754;51.568;5.048;2022-12-29T07:03:21;3.80;;;0.30;;
69534;SDS011;56754;51.568;5.048;2022-12-29T07:05:46;5.33;;;0.60;;
69534;SDS011;56754;51.568;5.048;2022-12-29T07:08:11;6.20;;;0.70;;
69534;SDS011;56754;51.568;5.048;2022-12-29T07:10:37;7.70;;;0.60;;
69534;SDS011;56754;51.568;5.048;2022-12-29T07:13:02;4.70;;;0.60;;
69534;SDS011;56754;51.568;5.048;2022-12-29T07:15:27;6.27;;;0.67;;
69534;SDS011;56754;51.568;5.048;2022-12-29T07:17:54;4.97;;;0.63;;
69534;SDS011;56754;51.568;5.048;2022-12-29T07:20:19;6.70;;;0.70;;
69534;SDS011;56754;51.568;5.048;2022-12-29T07:22:44;4.97;;;0.60;;
69534;SDS011;56754;51.568;5.048;2022-12-29T07:25:09;6.53;;;0.93;;
69534;SDS011;56754;51.568;5.048;2022-12-29T07:27:35;5.53;;;0.50;;
69534;SDS011;56754;51.568;5.048;2022-12-29T07:30:00;7.87;;;0.50;;
69534;SDS011;56754;51.568;5.048;2022-12-29T07:32:25;5.33;;;0.60;;
69534;SDS011;56754;51.568;5.048;2022-12-29T07:34:51;9.30;;;1.00;;
69534;SDS011;56754;51.568;5.048;2022-12-29T07:37:16;3.87;;;0.60;;
69534;SDS011;56754;51.568;5.048;2022-12-29T07:39:41;4.27;;;0.70;;
69534;SDS011;56754;51.568;5.048;2022-12-29T07:42:06;5.70;;;0.63;;
69534;SDS011;56754;51.568;5.048;2022-12-29T07:44:32;5.27;;;0.47;;
69534;SDS011;56754;51.568;5.048;2022-12-29T07:46:58;6.43;;;0.70;;
69534;SDS011;56754;51.568;5.048;2022-12-29T07:49:23;5.93;;;0.67;;
69534;SDS011;56754;51.568;5.048;2022-12-29T07:51:49;4.22;;;0.52;;
69534;SDS011;56754;51.568;5.048;2022-12-29T07:54:14;7.10;;;0.50;;
69534;SDS011;56754;51.568;5.048;2022-12-29T07:56:39;5.17;;;0.83;;
69534;SDS011;56754;51.568;5.048;2022-12-29T07:59:05;8.93;;;0.80;;
69534;SDS011;56754;51.568;5.048;2022-12-29T08:01:30;7.63;;;0.80;;
69534;SDS011;56754;51.568;5.048;2022-12-29T08:03:55;7.90;;;0.70;;
69534;SDS011;56754;51.568;5.048;2022-12-29T08:06:20;7.73;;;0.80;;
69534;SDS011;56754;51.568;5.048;2022-12-29T08:08:46;10.43;;;1.00;;
69534;SDS011;56754;51.568;5.048;2022-12-29T08:11:11;6.47;;;0.90;;
69534;SDS011;56754;51.568;5.048;2022-12-29T08:13:36;7.53;;;1.08;;
69534;SDS011;56754;51.568;5.048;2022-12-29T08:16:02;4.33;;;0.40;;
69534;SDS011;56754;51.568;5.048;2022-12-29T08:18:27;5.40;;;0.57;;
69534;SDS011;56754;51.568;5.048;2022-12-29T08:20:52;4.23;;;0.60;;
69534;SDS011;56754;51.568;5.048;2022-12-29T08:23:17;4.53;;;0.70;;
69534;SDS011;56754;51.568;5.048;2022-12-29T08:25:43;5.10;;;0.67;;
69534;SDS011;56754;51.568;5.048;2022-12-29T08:28:08;8.33;;;0.80;;
69534;SDS011;56754;51.568;5.048;2022-12-29T08:30:33;4.97;;;0.60;;
69534;SDS011;56754;51.568;5.048;2022-12-29T08:33:00;5.63;;;0.75;;
69534;SDS011;56754;51.568;5.048;2022-12-29T08:35:27;5.72;;;0.70;;
69534;SDS011;56754;51.568;5.048;2022-12-29T08:37:52;7.17;;;0.60;;
69534;SDS011;56754;51.568;5.048;2022-12-29T08:40:17;5.00;;;0.80;;
69534;SDS011;56754;51.568;5.048;2022-12-29T08:42:43;5.90;;;0.63;;
69534;SDS011;56754;51.568;5.048;2022-12-29T08:45:08;6.37;;;0.60;;
69534;SDS011;56754;51.568;5.048;2022-12-29T08:47:34;7.35;;;0.52;;
69534;SDS011;56754;51.568;5.048;2022-12-29T08:49:59;6.17;;;0.73;;
69534;SDS011;56754;51.568;5.048;2022-12-29T08:52:24;5.57;;;0.70;;
69534;SDS011;56754;51.568;5.048;2022-12-29T08:54:50;4.80;;;0.50;;
69534;SDS011;56754;51.568;5.048;2022-12-29T08:57:15;5.72;;;0.60;;
69534;SDS011;56754;51.568;5.048;2022-12-29T08:59:40;7.50;;;0.70;;
69534;SDS011;56754;51.568;5.048;2022-12-29T09:02:06;6.87;;;0.60;;
69534;SDS011;56754;51.568;5.048;2022-12-29T09:04:34;5.72;;;0.70;;
69534;SDS011;56754;51.568;5.048;2022-12-29T09:07:00;6.93;;;0.80;;
69534;SDS011;56754;51.568;5.048;2022-12-29T09:09:25;5.27;;;0.53;;
69534;SDS011;56754;51.568;5.048;2022-12-29T09:11:50;5.10;;;0.60;;
69534;SDS011;56754;51.568;5.048;2022-12-29T09:14:15;7.27;;;0.73;;
69534;SDS011;56754;51.568;5.048;2022-12-29T09:16:41;6.73;;;0.83;;
69534;SDS011;56754;51.568;5.048;2022-12-29T09:19:06;3.83;;;0.47;;
69534;SDS011;56754;51.568;5.048;2022-12-29T09:21:31;5.70;;;0.70;;
69534;SDS011;56754;51.568;5.048;2022-12-29T09:23:57;5.97;;;0.77;;
69534;SDS011;56754;51.568;5.048;2022-12-29T09:26:22;7.33;;;0.77;;
69534;SDS011;56754;51.568;5.048;2022-12-29T09:28:47;6.23;;;0.90;;
69534;SDS011;56754;51.568;5.048;2022-12-29T09:31:13;6.60;;;0.80;;
69534;SDS011;56754;51.568;5.048;2022-12-29T09:33:38;6.43;;;0.60;;
69534;SDS011;56754;51.568;5.048;2022-12-29T09:36:03;8.47;;;0.70;;
69534;SDS011;56754;51.568;5.048;2022-12-29T09:38:29;5.60;;;0.52;;
69534;SDS011;56754;51.568;5.048;2022-12-29T09:41:11;5.27;;;0.63;;
69534;SDS011;56754;51.568;5.048;2022-12-29T09:46:49;6.85;;;0.80;;
69534;SDS011;56754;51.568;5.048;2022-12-29T09:51:50;5.03;;;0.77;;
69534;SDS011;56754;51.568;5.048;2022-12-29T09:56:43;6.33;;;1.60;;
69534;SDS011;56754;51.568;5.048;2022-12-29T09:59:11;9.15;;;0.82;;
69534;SDS011;56754;51.568;5.048;2022-12-29T10:04:16;7.88;;;1.10;;
69534;SDS011;56754;51.568;5.048;2022-12-29T10:15:30;5.53;;;0.88;;
69534;SDS011;56754;51.568;5.048;2022-12-29T10:23:22;7.97;;;0.85;;
69534;SDS011;56754;51.568;5.048;2022-12-29T10:25:54;5.73;;;0.70;;
69534;SDS011;56754;51.568;5.048;2022-12-29T10:28:22;5.35;;;0.95;;
69534;SDS011;56754;51.568;5.048;2022-12-29T10:30:48;8.65;;;1.00;;
69534;SDS011;56754;51.568;5.048;2022-12-29T10:33:26;6.78;;;0.90;;
69534;SDS011;56754;51.568;5.048;2022-12-29T10:35:59;5.55;;;0.80;;
69534;SDS011;56754;51.568;5.048;2022-12-29T10:43:42;7.13;;;0.90;;
69534;SDS011;56754;51.568;5.048;2022-12-29T10:46:12;6.70;;;0.85;;
69534;SDS011;56754;51.568;5.048;2022-12-29T10:48:41;6.60;;;1.13;;
69534;SDS011;56754;51.568;5.048;2022-12-29T10:51:07;7.40;;;1.27;;
69534;SDS011;56754;51.568;5.048;2022-12-29T10:53:42;5.60;;;1.00;;
69534;SDS011;56754;51.568;5.048;2022-12-29T10:56:21;6.07;;;0.80;;
69534;SDS011;56754;51.568;5.048;2022-12-29T10:58:54;7.00;;;0.75;;
69534;SDS011;56754;51.568;5.048;2022-12-29T11:01:25;7.22;;;0.95;;
69534;SDS011;56754;51.568;5.048;2022-12-29T11:06:30;10.83;;;1.20;;
69534;SDS011;56754;51.568;5.048;2022-12-29T11:09:01;8.07;;;1.05;;
69534;SDS011;56754;51.568;5.048;2022-12-29T11:11:53;7.60;;;1.10;;
69534;SDS011;56754;51.568;5.048;2022-12-29T11:14:19;7.83;;;1.07;;
69534;SDS011;56754;51.568;5.048;2022-12-29T11:16:56;9.60;;;1.30;;
69534;SDS011;56754;51.568;5.048;2022-12-29T11:19:26;7.15;;;1.08;;
69534;SDS011;56754;51.568;5.048;2022-12-29T11:21:53;7.07;;;1.40;;
69534;SDS011;56754;51.568;5.048;2022-12-29T11:24:21;6.73;;;1.20;;
69534;SDS011;56754;51.568;5.048;2022-12-29T11:26:46;7.88;;;1.00;;
69534;SDS011;56754;51.568;5.048;2022-12-29T11:29:22;7.55;;;1.08;;
69534;SDS011;56754;51.568;5.048;2022-12-29T11:31:50;8.40;;;1.17;;
69534;SDS011;56754;51.568;5.048;2022-12-29T11:36:49;9.13;;;1.33;;
69534;SDS011;56754;51.568;5.048;2022-12-29T11:39:23;6.22;;;0.98;;
69534;SDS011;56754;51.568;5.048;2022-12-29T11:41:54;7.70;;;1.00;;
69534;SDS011;56754;51.568;5.048;2022-12-29T11:44:19;7.47;;;0.80;;
69534;SDS011;56754;51.568;5.048;2022-12-29T11:46:46;10.27;;;1.15;;
69534;SDS011;56754;51.568;5.048;2022-12-29T11:49:20;6.20;;;1.00;;
69534;SDS011;56754;51.568;5.048;2022-12-29T11:51:49;8.97;;;1.10;;
69534;SDS011;56754;51.568;5.048;2022-12-29T11:54:34;12.00;;;1.33;;
69534;SDS011;56754;51.568;5.048;2022-12-29T11:57:35;9.10;;;0.90;;
69534;SDS011;56754;51.568;5.048;2022-12-29T11:59:55;7.68;;;1.00;;
69534;SDS011;56754;51.568;5.048;2022-12-29T12:05:22;7.37;;;1.10;;
69534;SDS011;56754;51.568;5.048;2022-12-29T12:08:03;8.23;;;1.23;;
69534;SDS011;56754;51.568;5.048;2022-12-29T12:10:37;6.47;;;0.82;;
69534;SDS011;56754;51.568;5.048;2022-12-29T12:16:06;5.80;;;0.85;;
69534;SDS011;56754;51.568;5.048;2022-12-29T12:18:41;7.53;;;1.10;;
69534;SDS011;56754;51.568;5.048;2022-12-29T12:21:21;10.13;;;1.17;;
69534;SDS011;56754;51.568;5.048;2022-12-29T12:24:07;7.57;;;1.23;;
69534;SDS011;56754;51.568;5.048;2022-12-29T12:27:02;8.75;;;1.10;;
69534;SDS011;56754;51.568;5.048;2022-12-29T12:33:02;9.73;;;1.37;;
69534;SDS011;56754;51.568;5.048;2022-12-29T12:40:59;9.95;;;1.40;;
69534;SDS011;56754;51.568;5.048;2022-12-29T12:50:00;8.82;;;1.30;;
69534;SDS011;56754;51.568;5.048;2022-12-29T13:00:00;9.83;;;1.13;;
69534;SDS011;56754;51.568;5.048;2022-12-29T13:05:30;5.30;;;0.90;;
69534;SDS011;56754;51.568;5.048;2022-12-29T13:16:27;6.90;;;0.87;;
69534;SDS011;56754;51.568;5.048;2022-12-29T13:24:24;3.78;;;0.82;;
69534;SDS011;56754;51.568;5.048;2022-12-29T13:34:51;7.23;;;1.07;;
69534;SDS011;56754;51.568;5.048;2022-12-29T13:37:19;7.75;;;0.90;;
69534;SDS011;56754;51.568;5.048;2022-12-29T13:39:51;7.38;;;0.85;;
69534;SDS011;56754;51.568;5.048;2022-12-29T13:42:21;4.65;;;0.70;;
69534;SDS011;56754;51.568;5.048;2022-12-29T13:44:51;10.60;;;0.80;;
69534;SDS011;56754;51.568;5.048;2022-12-29T13:47:36;5.10;;;0.70;;
69534;SDS011;56754;51.568;5.048;2022-12-29T13:50:20;7.03;;;0.93;;
69534;SDS011;56754;51.568;5.048;2022-12-29T14:06:31;6.13;;;0.80;;
69534;SDS011;56754;51.568;5.048;2022-12-29T14:09:00;6.97;;;0.80;;
69534;SDS011;56754;51.568;5.048;2022-12-29T14:11:31;6.13;;;0.93;;
69534;SDS011;56754;51.568;5.048;2022-12-29T14:13:59;4.83;;;0.50;;
69534;SDS011;56754;51.568;5.048;2022-12-29T14:16:36;7.40;;;1.00;;
69534;SDS011;56754;51.568;5.048;2022-12-29T14:19:06;9.87;;;1.10;;
69534;SDS011;56754;51.568;5.048;2022-12-29T14:21:37;7.18;;;0.85;;
69534;SDS011;56754;51.568;5.048;2022-12-29T14:26:57;6.60;;;0.68;;
69534;SDS011;56754;51.568;5.048;2022-12-29T14:31:49;8.17;;;1.33;;
69534;SDS011;56754;51.568;5.048;2022-12-29T14:34:16;5.55;;;0.63;;
69534;SDS011;56754;51.568;5.048;2022-12-29T14:36:57;5.57;;;0.82;;
69534;SDS011;56754;51.568;5.048;2022-12-29T14:39:43;6.68;;;0.98;;
69534;SDS011;56754;51.568;5.048;2022-12-29T14:44:55;6.67;;;1.40;;
69534;SDS011;56754;51.568;5.048;2022-12-29T14:47:33;6.13;;;0.80;;
69534;SDS011;56754;51.568;5.048;2022-12-29T14:52:33;4.63;;;0.77;;
69534;SDS011;56754;51.568;5.048;2022-12-29T14:57:43;5.90;;;0.88;;
69534;SDS011;56754;51.568;5.048;2022-12-29T15:03:18;6.07;;;0.67;;
69534;SDS011;56754;51.568;5.048;2022-12-29T15:05:51;6.30;;;0.80;;
69534;SDS011;56754;51.568;5.048;2022-12-29T15:08:22;5.57;;;0.75;;
69534;SDS011;56754;51.568;5.048;2022-12-29T15:10:55;6.10;;;0.80;;
69534;SDS011;56754;51.568;5.048;2022-12-29T15:13:31;5.00;;;0.77;;
69534;SDS011;56754;51.568;5.048;2022-12-29T15:16:05;5.40;;;0.70;;
69534;SDS011;56754;51.568;5.048;2022-12-29T15:18:46;6.57;;;0.88;;
69534;SDS011;56754;51.568;5.048;2022-12-29T15:21:12;4.43;;;0.77;;
69534;SDS011;56754;51.568;5.048;2022-12-29T15:23:39;5.25;;;0.77;;
69534;SDS011;56754;51.568;5.048;2022-12-29T15:26:08;6.45;;;0.60;;
69534;SDS011;56754;51.568;5.048;2022-12-29T15:28:39;4.68;;;0.82;;
69534;SDS011;56754;51.568;5.048;2022-12-29T15:31:22;5.53;;;0.80;;
69534;SDS011;56754;51.568;5.048;2022-12-29T15:33:53;6.25;;;0.60;;
69534;SDS011;56754;51.568;5.048;2022-12-29T15:36:27;3.45;;;0.40;;
69534;SDS011;56754;51.568;5.048;2022-12-29T15:38:55;3.83;;;0.50;;
69534;SDS011;56754;51.568;5.048;2022-12-29T15:46:24;4.10;;;0.70;;
69534;SDS011;56754;51.568;5.048;2022-12-29T15:48:49;5.23;;;0.80;;
69534;SDS011;56754;51.568;5.048;2022-12-29T15:51:18;4.93;;;0.40;;
69534;SDS011;56754;51.568;5.048;2022-12-29T15:53:48;4.07;;;0.70;;
69534;SDS011;56754;51.568;5.048;2022-12-29T15:56:16;5.20;;;0.50;;
69534;SDS011;56754;51.568;5.048;2022-12-29T15:58:43;4.90;;;0.80;;
69534;SDS011;56754;51.568;5.048;2022-12-29T16:03:48;4.72;;;0.50;;
69534;SDS011;56754;51.568;5.048;2022-12-29T16:06:37;5.73;;;0.40;;
69534;SDS011;56754;51.568;5.048;2022-12-29T16:09:15;3.90;;;0.50;;
69534;SDS011;56754;51.568;5.048;2022-12-29T16:11:46;4.55;;;0.77;;
69534;SDS011;56754;51.568;5.048;2022-12-29T16:14:21;5.05;;;0.40;;
69534;SDS011;56754;51.568;5.048;2022-12-29T16:16:53;4.78;;;0.70;;
69534;SDS011;56754;51.568;5.048;2022-12-29T16:19:26;2.63;;;0.43;;
69534;SDS011;56754;51.568;5.048;2022-12-29T16:21:53;3.85;;;0.50;;
69534;SDS011;56754;51.568;5.048;2022-12-29T16:24:19;4.07;;;0.50;;
69534;SDS011;56754;51.568;5.048;2022-12-29T16:26:57;3.30;;;0.50;;
69534;SDS011;56754;51.568;5.048;2022-12-29T16:29:27;5.57;;;0.65;;
69534;SDS011;56754;51.568;5.048;2022-12-29T16:31:55;4.85;;;0.55;;
69534;SDS011;56754;51.568;5.048;2022-12-29T16:34:23;4.57;;;0.50;;
69534;SDS011;56754;51.568;5.048;2022-12-29T16:37:05;3.93;;;0.50;;
69534;SDS011;56754;51.568;5.048;2022-12-29T16:47:45;3.70;;;0.40;;
69534;SDS011;56754;51.568;5.048;2022-12-29T16:50:35;3.80;;;0.43;;
69534;SDS011;56754;51.568;5.048;2022-12-29T16:53:03;3.92;;;0.40;;
69534;SDS011;56754;51.568;5.048;2022-12-29T16:55:30;4.80;;;0.63;;
69534;SDS011;56754;51.568;5.048;2022-12-29T16:57:55;3.67;;;0.50;;
69534;SDS011;56754;51.568;5.048;2022-12-29T17:02:49;4.07;;;0.50;;
69534;SDS011;56754;51.568;5.048;2022-12-29T17:05:17;4.65;;;0.60;;
69534;SDS011;56754;51.568;5.048;2022-12-29T17:07:44;2.50;;;0.40;;
69534;SDS011;56754;51.568;5.048;2022-12-29T17:10:10;5.33;;;0.67;;
69534;SDS011;56754;51.568;5.048;2022-12-29T17:12:36;6.03;;;0.50;;
69534;SDS011;56754;51.568;5.048;2022-12-29T17:15:03;3.20;;;0.70;;
69534;SDS011;56754;51.568;5.048;2022-12-29T17:17:33;4.63;;;0.60;;
69534;SDS011;56754;51.568;5.048;2022-12-29T17:20:26;4.80;;;0.73;;
69534;SDS011;56754;51.568;5.048;2022-12-29T17:22:53;4.70;;;0.75;;
69534;SDS011;56754;51.568;5.048;2022-12-29T17:25:41;3.15;;;0.40;;
69534;SDS011;56754;51.568;5.048;2022-12-29T17:28:17;3.25;;;0.40;;
69534;SDS011;56754;51.568;5.048;2022-12-29T17:30:46;4.27;;;0.53;;
69534;SDS011;56754;51.568;5.048;2022-12-29T17:33:13;2.78;;;0.40;;
69534;SDS011;56754;51.568;5.048;2022-12-29T17:35:40;5.50;;;0.82;;
69534;SDS011;56754;51.568;5.048;2022-12-29T17:38:48;6.07;;;0.60;;